Time;durP1;ratioP1;P1;durP2;ratioP2;P2;SDS_P1;SDS_P2;PMS_P1;PMS_P2;Temp;Humidity;BMP_temperature;BMP_pressure;BME280_temperature;BME280_humidity;BME280_pressure;Samples;Min_cycle;Max_cycle;Signal;HPM_P1;HPM_P2
2020/12/20 00:01:22;;;;;;;4.72;3.20;;;;;;;11.62;44.71;101244.03;5070095;28;20139;-64
2020/12/20 00:03:49;;;;;;;4.85;3.35;;;;;;;11.60;44.56;101246.94;5070123;28;20040;-64
2020/12/20 00:06:16;;;;;;;4.85;3.88;;;;;;;11.60;44.70;101237.84;5070289;28;20478;-64
2020/12/20 00:08:46;;;;;;;6.05;3.58;;;;;;;11.60;45.08;101246.06;5069934;28;20037;-65
2020/12/20 00:11:15;;;;;;;6.65;3.70;;;;;;;11.61;44.74;101250.50;5066800;28;20403;-65
2020/12/20 00:13:43;;;;;;;5.07;3.00;;;;;;;11.59;44.85;101250.66;5068187;28;20044;-64
2020/12/20 00:16:11;;;;;;;6.50;3.70;;;;;;;11.57;45.00;101249.91;5073808;28;20040;-63
2020/12/20 00:18:38;;;;;;;4.95;3.20;;;;;;;11.56;45.02;101242.69;5075207;28;20083;-63
2020/12/20 00:21:06;;;;;;;4.93;2.92;;;;;;;11.56;44.91;101239.94;5075101;28;20432;-64
2020/12/20 00:23:33;;;;;;;4.45;3.13;;;;;;;11.56;44.90;101237.22;5087498;28;20451;-64
2020/12/20 00:26:06;;;;;;;6.00;3.25;;;;;;;11.55;45.24;101240.94;5075198;28;20174;-64
2020/12/20 00:28:34;;;;;;;4.97;3.30;;;;;;;11.56;45.11;101233.59;5075888;28;20044;-64
2020/12/20 00:31:02;;;;;;;5.10;2.88;;;;;;;11.57;44.87;101236.22;5075570;28;20119;-64
2020/12/20 00:33:30;;;;;;;4.75;3.20;;;;;;;11.54;44.88;101228.25;5089522;28;20041;-64
2020/12/20 00:35:57;;;;;;;5.40;2.92;;;;;;;11.53;44.93;101221.03;5076372;28;20158;-64
2020/12/20 00:38:24;;;;;;;5.40;3.38;;;;;;;11.53;44.94;101221.03;5072983;28;20455;-64
2020/12/20 00:40:53;;;;;;;5.00;3.03;;;;;;;11.54;45.15;101224.63;5073515;28;20036;-64
2020/12/20 00:43:20;;;;;;;4.10;2.90;;;;;;;11.52;45.14;101230.28;5074234;28;20040;-64
2020/12/20 00:45:50;;;;;;;4.65;2.78;;;;;;;11.53;44.92;101231.09;5074050;28;20029;-64
2020/12/20 00:48:18;;;;;;;4.90;2.83;;;;;;;11.51;45.27;101224.91;5074327;28;20487;-64
2020/12/20 00:50:45;;;;;;;5.82;3.33;;;;;;;11.49;45.36;101226.91;5084255;28;20383;-64
2020/12/20 00:53:12;;;;;;;4.30;2.70;;;;;;;11.48;44.96;101222.41;5066225;28;20415;-64
2020/12/20 00:55:40;;;;;;;4.60;3.15;;;;;;;11.47;44.97;101223.41;5090089;28;20102;-64
2020/12/20 00:58:07;;;;;;;4.30;2.75;;;;;;;11.45;45.35;101222.66;5074301;28;20053;-64
2020/12/20 01:00:34;;;;;;;5.30;3.10;;;;;;;11.45;45.34;101230.88;5100699;28;20044;-64
2020/12/20 01:03:02;;;;;;;5.85;3.00;;;;;;;11.44;45.31;101229.19;5072126;28;20047;-64
2020/12/20 01:05:31;;;;;;;4.63;3.10;;;;;;;11.44;45.04;101229.19;5074417;28;20040;-64
2020/12/20 01:07:58;;;;;;;5.20;2.85;;;;;;;11.40;45.30;101230.41;5054921;28;20051;-64
2020/12/20 01:10:26;;;;;;;4.88;3.15;;;;;;;11.40;44.99;101230.41;5073529;28;20483;-64
2020/12/20 01:12:53;;;;;;;4.60;2.80;;;;;;;11.38;45.29;101229.66;5070981;28;20468;-64
2020/12/20 01:15:29;;;;;;;4.90;2.78;;;;;;;11.36;44.95;101227.06;5070991;28;20534;-64
2020/12/20 01:17:59;;;;;;;6.13;3.10;;;;;;;11.34;44.89;101231.81;5081768;28;20576;-64
2020/12/20 01:20:27;;;;;;;5.70;2.83;;;;;;;11.35;45.04;101232.69;5088658;28;20526;-64
2020/12/20 01:22:57;;;;;;;3.63;2.70;;;;;;;11.34;44.88;101222.72;5072717;28;20053;-65
2020/12/20 01:25:25;;;;;;;4.95;2.83;;;;;;;11.32;45.26;101230.19;5072417;28;20028;-64
2020/12/20 01:28:04;;;;;;;4.25;2.78;;;;;;;11.29;45.33;101225.81;5074297;28;20048;-64
2020/12/20 01:30:36;;;;;;;4.28;2.63;;;;;;;11.27;45.19;101236.94;5064033;28;20048;-64
2020/12/20 01:33:04;;;;;;;4.82;2.80;;;;;;;11.28;45.56;101246.00;5078809;28;20090;-64
2020/12/20 01:35:36;;;;;;;5.45;2.85;;;;;;;11.25;45.26;101235.31;5074994;28;20386;-64
2020/12/20 01:38:05;;;;;;;5.20;2.80;;;;;;;11.27;45.09;101244.28;5072192;28;20040;-64
2020/12/20 01:40:32;;;;;;;4.22;2.63;;;;;;;11.26;45.55;101245.28;5086512;28;20047;-64
2020/12/20 01:43:00;;;;;;;3.88;2.70;;;;;;;11.25;45.55;101238.06;5077223;28;20044;-64
2020/12/20 01:45:33;;;;;;;5.07;2.75;;;;;;;11.23;45.41;101235.44;5072616;28;20053;-64
2020/12/20 01:48:04;;;;;;;4.07;2.90;;;;;;;11.26;45.28;101237.94;5072286;28;20063;-64
2020/12/20 01:50:40;;;;;;;4.32;2.90;;;;;;;11.24;45.79;101244.53;5088141;28;20044;-65
2020/12/20 01:53:11;;;;;;;5.28;3.80;;;;;;;11.24;45.49;101239.91;5074516;28;20051;-64
2020/12/20 01:55:42;;;;;;;4.90;2.72;;;;;;;11.26;45.10;101245.28;5071660;28;20037;-64
2020/12/20 01:58:10;;;;;;;5.43;2.58;;;;;;;11.23;45.68;101246.38;5073232;28;20044;-64
2020/12/20 02:00:46;;;;;;;4.78;2.97;;;;;;;11.23;45.54;101242.78;5078371;28;20044;-64
2020/12/20 02:03:37;;;;;;;4.10;2.65;;;;;;;11.21;45.54;101251.13;5067885;28;20044;-64
2020/12/20 02:06:13;;;;;;;5.47;2.95;;;;;;;11.22;45.50;101244.66;5085445;28;20048;-64
2020/12/20 02:08:45;;;;;;;3.92;2.50;;;;;;;11.22;45.68;101244.66;5066211;28;20045;-64
2020/12/20 02:11:15;;;;;;;5.60;3.00;;;;;;;11.22;45.50;101243.78;5080340;28;20065;-64
2020/12/20 02:13:49;;;;;;;4.47;2.60;;;;;;;11.20;45.55;101232.94;5070770;28;20040;-64
2020/12/20 02:16:19;;;;;;;3.83;2.28;;;;;;;11.21;45.45;101239.28;5087993;28;20050;-65
2020/12/20 02:18:47;;;;;;;4.78;2.60;;;;;;;11.19;45.51;101235.84;5080016;28;20123;-65
2020/12/20 02:21:16;;;;;;;4.65;2.67;;;;;;;11.22;45.78;101235.56;5087869;28;20071;-64
2020/12/20 02:23:50;;;;;;;5.22;2.58;;;;;;;11.20;45.58;101240.28;5085463;28;20415;-64
2020/12/20 02:26:23;;;;;;;4.20;2.67;;;;;;;11.19;45.63;101244.06;5073817;28;20050;-64
2020/12/20 02:28:51;;;;;;;4.32;3.00;;;;;;;11.19;45.64;101244.91;5077824;28;20048;-64
2020/12/20 02:31:22;;;;;;;4.00;2.80;;;;;;;11.21;45.70;101237.41;5072240;28;20123;-64
2020/12/20 02:33:50;;;;;;;4.25;2.58;;;;;;;11.20;45.78;101235.69;5071329;28;20040;-65
2020/12/20 02:36:18;;;;;;;5.07;2.63;;;;;;;11.22;45.81;101230.94;5070233;28;20510;-64
2020/12/20 02:38:49;;;;;;;5.88;2.75;;;;;;;11.22;45.80;101238.28;5086734;28;20036;-64
2020/12/20 02:41:25;;;;;;;3.97;2.72;;;;;;;11.21;45.69;101228.34;5072621;28;20045;-64
2020/12/20 02:43:52;;;;;;;4.53;2.78;;;;;;;11.21;45.53;101225.59;5069988;28;20060;-64
2020/12/20 02:46:27;;;;;;;4.32;2.70;;;;;;;11.24;45.48;101230.84;5103001;28;20098;-64
2020/12/20 02:48:59;;;;;;;4.10;2.78;;;;;;;11.23;45.70;101231.81;5074029;28;20047;-64
2020/12/20 02:51:28;;;;;;;3.50;2.60;;;;;;;11.24;45.95;101233.56;5070202;28;20036;-64
2020/12/20 02:53:55;;;;;;;4.32;2.70;;;;;;;11.23;45.56;101234.56;5069720;28;20136;-64
2020/12/20 02:56:42;;;;;;;4.03;2.72;;;;;;;11.25;46.00;101238.94;5087624;28;20040;-64
2020/12/20 02:59:10;;;;;;;5.88;3.05;;;;;;;11.24;46.09;101236.31;5072489;28;20055;-64
2020/12/20 03:01:38;;;;;;;4.63;3.03;;;;;;;11.24;45.60;101239.03;5072452;28;20066;-63
2020/12/20 03:04:08;;;;;;;4.93;2.78;;;;;;;11.24;45.84;101239.03;5066623;28;20040;-64
2020/12/20 03:06:37;;;;;;;5.53;3.08;;;;;;;11.25;45.70;101240.78;5069071;28;20041;-64
2020/12/20 03:09:05;;;;;;;4.47;2.97;;;;;;;11.24;46.02;101241.78;5070348;28;20521;-64
2020/12/20 03:11:37;;;;;;;5.25;2.78;;;;;;;11.24;45.69;101231.72;5067459;28;20490;-64
2020/12/20 03:14:04;;;;;;;4.85;2.90;;;;;;;11.25;45.76;101238.94;5103580;28;20395;-64
2020/12/20 03:16:35;;;;;;;4.80;2.90;;;;;;;11.26;45.93;101242.53;5059875;28;20040;-64
2020/12/20 03:19:03;;;;;;;4.47;2.85;;;;;;;11.26;45.95;101246.16;5086746;28;20072;-64
2020/12/20 03:21:30;;;;;;;4.40;2.72;;;;;;;11.26;46.16;101240.66;5067499;28;20048;-64
2020/12/20 03:24:17;;;;;;;5.50;2.90;;;;;;;11.26;45.93;101246.16;5100802;28;20051;-64
2020/12/20 03:27:08;;;;;;;4.90;2.88;;;;;;;11.25;45.92;101249.88;5044936;28;20064;-64
2020/12/20 03:29:55;;;;;;;4.90;2.95;;;;;;;11.27;45.85;101258.84;5066909;28;20064;-65
2020/12/20 03:32:46;;;;;;;4.28;2.58;;;;;;;11.28;45.99;101259.69;5051023;28;20045;-65
2020/12/20 03:35:31;;;;;;;4.40;2.90;;;;;;;11.28;46.13;101262.44;5068268;28;20044;-65
2020/12/20 03:38:10;;;;;;;4.35;2.80;;;;;;;11.29;46.15;101264.16;5068765;28;20044;-65
2020/12/20 03:40:43;;;;;;;4.68;2.63;;;;;;;11.29;45.86;101262.31;5101875;28;20044;-65
2020/12/20 03:43:11;;;;;;;3.72;2.40;;;;;;;11.31;45.79;101266.78;5070405;28;20054;-65
2020/12/20 03:45:45;;;;;;;4.32;2.80;;;;;;;11.31;45.90;101266.78;5065883;28;20114;-65
2020/12/20 03:48:16;;;;;;;4.30;2.95;;;;;;;11.32;45.86;101263.06;5097403;28;20427;-65
2020/12/20 03:50:44;;;;;;;4.65;2.97;;;;;;;11.32;46.04;101269.41;5083205;28;20048;-65
2020/12/20 03:53:11;;;;;;;4.93;3.45;;;;;;;11.32;45.67;101272.16;5069839;28;20373;-65
2020/12/20 03:55:48;;;;;;;4.68;3.17;;;;;;;11.33;46.14;101273.00;5069221;28;20111;-65
2020/12/20 03:58:15;;;;;;;5.07;3.38;;;;;;;11.32;45.96;101272.16;5062745;28;20040;-65
2020/12/20 04:00:42;;;;;;;4.95;3.03;;;;;;;11.32;45.84;101261.19;5057525;28;20526;-65
2020/12/20 04:03:19;;;;;;;5.05;3.28;;;;;;;11.31;46.08;101266.78;5068119;28;20675;-65
2020/12/20 04:05:47;;;;;;;4.50;2.60;;;;;;;11.32;45.87;101261.19;5085820;28;20040;-65
2020/12/20 04:08:15;;;;;;;4.47;2.88;;;;;;;11.31;46.06;101253.97;5076757;28;20443;-65
2020/12/20 04:10:56;;;;;;;6.55;3.80;;;;;;;11.32;46.12;101254.84;5069749;28;20135;-65
2020/12/20 04:13:32;;;;;;;4.18;2.80;;;;;;;11.30;46.20;101249.47;5052207;28;20412;-65
2020/12/20 04:16:04;;;;;;;4.93;2.83;;;;;;;11.31;45.74;101244.88;5069685;28;20476;-65
2020/12/20 04:18:32;;;;;;;4.65;3.17;;;;;;;11.28;46.19;101246.88;5068812;28;20047;-64
2020/12/20 04:21:00;;;;;;;3.95;2.85;;;;;;;11.28;45.83;101248.72;5066941;28;20585;-65
2020/12/20 04:23:28;;;;;;;4.38;3.03;;;;;;;11.27;45.96;101247.03;5076032;28;20136;-64
2020/12/20 04:26:06;;;;;;;4.97;2.97;;;;;;;11.27;45.88;101247.03;5049594;28;20504;-65
2020/12/20 04:28:49;;;;;;;4.75;3.58;;;;;;;11.24;45.71;101258.22;5044483;28;20124;-65
2020/12/20 04:31:27;;;;;;;4.63;3.00;;;;;;;11.24;46.13;101248.13;5068727;28;20040;-65
2020/12/20 04:33:54;;;;;;;5.75;2.83;;;;;;;11.23;45.72;101240.91;5059966;28;20060;-65
2020/12/20 04:36:24;;;;;;;5.05;2.92;;;;;;;11.22;45.73;101238.28;5063499;28;20051;-65
2020/12/20 04:38:57;;;;;;;4.90;3.20;;;;;;;11.19;45.77;101244.06;5061236;28;20043;-65
2020/12/20 04:41:26;;;;;;;6.03;3.17;;;;;;;11.21;45.75;101244.75;5053021;28;20055;-65
2020/12/20 04:44:01;;;;;;;4.65;2.75;;;;;;;11.18;45.87;101258.72;5052632;28;20051;-65
2020/12/20 04:46:32;;;;;;;4.53;2.78;;;;;;;11.18;46.21;101250.53;5081977;28;20044;-65
2020/12/20 04:49:22;;;;;;;5.53;3.00;;;;;;;11.15;46.18;101246.16;5069375;28;20052;-65
2020/12/20 04:51:59;;;;;;;6.18;3.17;;;;;;;11.13;46.23;101250.88;5064891;28;20055;-65
2020/12/20 04:54:32;;;;;;;5.00;2.88;;;;;;;11.12;45.77;101260.09;5065272;28;20086;-65
2020/12/20 04:57:02;;;;;;;4.38;3.05;;;;;;;11.09;45.73;101263.09;5064831;28;20051;-65
2020/12/20 04:59:37;;;;;;;4.55;3.05;;;;;;;11.10;45.97;101253.03;5070254;28;20075;-65
2020/12/20 05:02:10;;;;;;;5.47;2.97;;;;;;;11.09;46.06;101251.28;5055742;28;20128;-65
2020/12/20 05:04:37;;;;;;;4.30;2.80;;;;;;;11.08;45.90;101252.25;5055521;28;21158;-65
2020/12/20 05:07:08;;;;;;;6.47;3.33;;;;;;;11.08;46.15;101252.25;5055806;28;20665;-65
2020/12/20 05:09:47;;;;;;;5.07;2.97;;;;;;;11.09;46.31;101256.75;5034544;28;20136;-65
2020/12/20 05:12:28;;;;;;;5.32;3.03;;;;;;;11.08;46.25;101242.19;5047441;28;20051;-65
2020/12/20 05:15:16;;;;;;;5.38;3.13;;;;;;;11.06;46.40;101254.25;5056060;28;20094;-65
2020/12/20 05:17:45;;;;;;;5.10;3.30;;;;;;;11.03;46.05;101246.31;5052667;28;20037;-65
2020/12/20 05:20:36;;;;;;;4.25;3.10;;;;;;;11.04;46.24;101245.28;5056593;28;20055;-65
2020/12/20 05:23:07;;;;;;;4.72;2.92;;;;;;;11.01;46.15;101251.91;5056185;28;20043;-65
2020/12/20 05:25:37;;;;;;;4.63;3.15;;;;;;;11.03;46.34;101251.78;5055992;28;20045;-65
2020/12/20 05:28:11;;;;;;;5.03;3.28;;;;;;;11.04;46.00;101257.09;5056963;28;20604;-65
2020/12/20 05:30:43;;;;;;;6.38;3.40;;;;;;;11.02;46.05;101255.50;5068030;28;20032;-65
2020/12/20 05:33:29;;;;;;;5.05;2.88;;;;;;;11.01;46.11;101256.50;5068917;28;20098;-65
2020/12/20 05:36:27;;;;;;;4.75;2.88;;;;;;;11.00;46.44;101255.63;5069640;28;20087;-65
2020/12/20 05:39:24;;;;;;;5.47;3.53;;;;;;;10.95;46.60;101255.13;5029718;28;20211;-65
2020/12/20 05:42:06;;;;;;;5.78;3.03;;;;;;;10.99;46.26;101255.75;5046615;28;20392;-65
2020/12/20 05:44:37;;;;;;;5.72;3.47;;;;;;;10.97;46.28;101260.47;5054523;28;20036;-65
2020/12/20 05:47:11;;;;;;;5.53;2.95;;;;;;;10.94;46.33;101261.63;5054062;28;20479;-65
2020/12/20 05:49:43;;;;;;;5.55;3.10;;;;;;;10.92;46.55;101263.59;5045776;28;20416;-65
2020/12/20 05:52:30;;;;;;;5.07;3.03;;;;;;;10.94;46.39;101266.22;5068745;28;20078;-65
2020/12/20 05:54:58;;;;;;;4.35;2.78;;;;;;;10.93;46.47;101262.63;5036600;28;20060;-65
2020/12/20 05:57:26;;;;;;;5.47;3.00;;;;;;;10.92;46.12;101266.34;5054188;28;20071;-65
2020/12/20 05:59:54;;;;;;;5.30;2.88;;;;;;;10.94;46.32;101263.47;5071843;28;20424;-65
2020/12/20 06:02:21;;;;;;;5.20;3.00;;;;;;;10.93;46.63;101268.09;5069383;28;20188;-65
2020/12/20 06:04:50;;;;;;;5.60;3.40;;;;;;;10.93;46.20;101264.47;5069994;28;20040;-65
2020/12/20 06:07:25;;;;;;;5.03;3.08;;;;;;;10.95;46.39;101257.84;5058375;28;20048;-65
2020/12/20 06:09:54;;;;;;;4.85;2.90;;;;;;;10.95;46.34;101259.75;5069014;28;20054;-65
2020/12/20 06:12:26;;;;;;;7.20;3.72;;;;;;;10.94;46.74;101260.75;5052935;28;20098;-65
2020/12/20 06:14:56;;;;;;;4.97;3.10;;;;;;;10.95;46.21;101259.75;5071210;28;20467;-65
2020/12/20 06:17:25;;;;;;;5.97;3.53;;;;;;;10.94;46.40;101256.16;5071901;28;20036;-65
2020/12/20 06:19:58;;;;;;;5.82;3.30;;;;;;;10.95;46.57;101265.22;5074392;28;20036;-65
2020/12/20 06:22:27;;;;;;;4.45;3.10;;;;;;;10.93;46.41;101264.47;5067142;28;20470;-65
2020/12/20 06:24:56;;;;;;;4.80;2.97;;;;;;;10.93;46.34;101269.94;5070021;28;20121;-65
2020/12/20 06:27:26;;;;;;;6.40;3.42;;;;;;;10.91;46.46;101267.34;5070482;28;20123;-65
2020/12/20 06:29:55;;;;;;;6.07;3.30;;;;;;;10.92;46.57;101270.94;5069933;28;20383;-65
2020/12/20 06:32:29;;;;;;;5.97;3.05;;;;;;;10.92;46.61;101265.47;5070718;28;20051;-65
2020/12/20 06:35:01;;;;;;;5.20;3.58;;;;;;;10.92;46.28;101260.00;5067499;28;20044;-65
2020/12/20 06:37:31;;;;;;;4.25;3.00;;;;;;;10.86;46.69;101258.63;5070159;28;20040;-66
2020/12/20 06:39:58;;;;;;;4.80;3.10;;;;;;;10.87;46.38;101265.81;5060387;28;20075;-65
2020/12/20 06:42:40;;;;;;;5.53;3.22;;;;;;;10.88;46.61;101257.50;5070408;28;20079;-66
2020/12/20 06:45:13;;;;;;;6.20;3.33;;;;;;;10.87;46.85;101255.75;5068054;28;20078;-66
2020/12/20 06:47:43;;;;;;;5.05;3.25;;;;;;;10.85;46.68;101263.25;5070139;28;20467;-65
2020/12/20 06:50:11;;;;;;;6.03;3.60;;;;;;;10.83;46.40;101261.56;5069922;28;20044;-64
2020/12/20 06:52:45;;;;;;;5.22;3.10;;;;;;;10.86;46.60;101275.06;5051885;28;20072;-65
2020/12/20 06:55:32;;;;;;;;;;;;;;;10.56;47.27;101272.88;5070182;28;20048;-64
2020/12/20 06:58:19;;;;;;;4.88;3.10;;;;;;;10.76;46.46;101272.16;5063519;28;19924;-64
2020/12/20 07:00:49;;;;;;;5.55;3.17;;;;;;;10.81;46.47;101280.84;5049933;28;20052;-64
2020/12/20 07:03:40;;;;;;;5.30;3.45;;;;;;;10.80;46.43;101278.22;5045593;28;20047;-64
2020/12/20 07:06:15;;;;;;;5.80;3.40;;;;;;;10.81;46.88;101271.78;5066468;28;20036;-64
2020/12/20 07:09:03;;;;;;;4.25;3.00;;;;;;;10.79;46.92;101269.16;5053705;28;20067;-65
2020/12/20 07:11:32;;;;;;;5.30;3.60;;;;;;;10.77;46.72;101273.91;5067877;28;20135;-64
2020/12/20 07:14:16;;;;;;;5.25;3.60;;;;;;;10.79;46.56;101273.75;5071595;28;20044;-64
2020/12/20 07:16:49;;;;;;;4.88;3.30;;;;;;;10.77;46.73;101283.97;5068899;28;20051;-65
2020/12/20 07:19:21;;;;;;;4.88;3.13;;;;;;;10.78;46.53;101272.03;5070770;28;20058;-65
2020/12/20 07:22:03;;;;;;;4.38;3.22;;;;;;;10.77;46.86;101281.25;5067582;28;20036;-64
2020/12/20 07:24:32;;;;;;;4.72;3.28;;;;;;;10.73;46.95;101280.59;5068228;28;20454;-64
2020/12/20 07:27:02;;;;;;;5.15;3.13;;;;;;;10.75;46.47;101280.47;5071167;28;20126;-64
2020/12/20 07:29:30;;;;;;;5.55;3.15;;;;;;;10.76;46.61;101287.69;5071065;28;20404;-65
2020/12/20 07:32:01;;;;;;;4.75;3.08;;;;;;;10.76;46.55;101290.44;5077152;28;20036;-64
2020/12/20 07:34:31;;;;;;;5.88;3.17;;;;;;;10.72;46.81;101288.94;5050746;28;20039;-65
2020/12/20 07:36:59;;;;;;;6.20;3.42;;;;;;;10.74;46.45;101306.97;5075332;28;20094;-64
2020/12/20 07:39:26;;;;;;;4.82;3.22;;;;;;;10.74;46.63;101314.31;5070260;28;20049;-64
2020/12/20 07:41:58;;;;;;;5.15;3.42;;;;;;;10.76;47.16;101310.47;5069569;28;20103;-65
2020/12/20 07:44:33;;;;;;;5.68;3.75;;;;;;;10.74;46.73;101311.56;5068475;28;20551;-66
2020/12/20 07:47:10;;;;;;;5.40;3.58;;;;;;;10.77;47.06;101320.41;5069988;28;20132;-66
2020/12/20 07:49:37;;;;;;;5.03;3.28;;;;;;;10.74;46.99;101314.31;5050795;28;20055;-63
2020/12/20 07:52:08;;;;;;;6.13;3.58;;;;;;;10.76;47.04;101315.94;5064837;28;20058;-66
2020/12/20 07:54:36;;;;;;;5.40;3.10;;;;;;;10.76;46.73;101318.69;5067940;28;20055;-65
2020/12/20 07:57:05;;;;;;;5.03;3.30;;;;;;;10.76;46.77;101324.16;5067093;28;20043;-65
2020/12/20 07:59:32;;;;;;;7.35;3.67;;;;;;;10.77;47.05;101325.03;5069704;28;20036;-65
2020/12/20 08:01:59;;;;;;;5.47;3.40;;;;;;;10.77;47.15;101333.22;5071864;28;20442;-65
2020/12/20 08:04:29;;;;;;;5.43;3.47;;;;;;;10.78;47.23;101330.34;5071010;28;20043;-65
2020/12/20 08:06:58;;;;;;;5.78;3.78;;;;;;;10.78;46.87;101338.56;5078590;28;20039;-66
2020/12/20 08:09:27;;;;;;;4.90;3.40;;;;;;;10.79;47.07;101343.03;5070621;28;20047;-65
2020/12/20 08:11:56;;;;;;;5.38;3.50;;;;;;;10.80;47.00;101332.97;5070452;28;20048;-66
2020/12/20 08:14:24;;;;;;;5.30;3.15;;;;;;;10.79;47.26;101336.69;5063377;28;20056;-65
2020/12/20 08:16:52;;;;;;;5.03;3.67;;;;;;;10.77;47.14;101336.84;5066412;28;20033;-64
2020/12/20 08:19:21;;;;;;;4.75;3.47;;;;;;;10.78;47.14;101341.28;5071378;28;20045;-64
2020/12/20 08:21:53;;;;;;;5.13;3.67;;;;;;;10.79;47.23;101345.78;5049887;28;20397;-64
2020/12/20 08:24:23;;;;;;;5.18;3.63;;;;;;;10.76;47.04;101334.22;5066345;28;20056;-64
2020/12/20 08:26:50;;;;;;;4.90;3.63;;;;;;;10.76;47.30;101337.84;5069324;28;20031;-64
2020/12/20 08:29:18;;;;;;;5.75;3.38;;;;;;;10.77;47.11;101341.44;5067903;28;20043;-64
2020/12/20 08:31:47;;;;;;;5.43;3.53;;;;;;;10.77;47.07;101347.78;5065221;28;20059;-65
2020/12/20 08:34:20;;;;;;;6.25;3.63;;;;;;;10.79;47.08;101342.16;5082410;28;20446;-65
2020/12/20 08:36:50;;;;;;;6.50;3.70;;;;;;;10.77;46.86;101350.53;5083271;28;20043;-65
2020/12/20 08:39:22;;;;;;;5.32;3.55;;;;;;;10.80;47.06;101353.00;5070233;28;20037;-65
2020/12/20 08:42:03;;;;;;;6.53;4.18;;;;;;;10.79;47.14;101359.47;5076167;28;20051;-66
2020/12/20 08:44:31;;;;;;;5.72;3.60;;;;;;;10.77;47.19;101364.22;5069960;28;20046;-66
2020/12/20 08:47:10;;;;;;;5.72;4.13;;;;;;;10.82;47.05;101358.34;5073624;28;20076;-65
2020/12/20 08:49:38;;;;;;;6.18;3.78;;;;;;;10.78;47.33;101362.34;5072300;28;20650;-65
2020/12/20 08:52:12;;;;;;;6.90;4.20;;;;;;;10.81;47.60;101359.34;5055610;28;20498;-65
2020/12/20 08:54:47;;;;;;;6.45;3.90;;;;;;;10.79;47.08;101362.19;5078092;28;20056;-66
2020/12/20 08:57:15;;;;;;;6.47;4.10;;;;;;;10.79;47.44;101364.94;5070966;28;20090;-66
2020/12/20 08:59:44;;;;;;;5.80;3.53;;;;;;;10.80;47.18;101361.22;5072877;28;20033;-66
2020/12/20 09:02:18;;;;;;;6.75;4.10;;;;;;;10.82;47.30;101353.75;5052704;28;20044;-65
2020/12/20 09:04:56;;;;;;;6.38;4.10;;;;;;;10.82;47.57;101363.81;5069957;28;20059;-65
2020/12/20 09:07:38;;;;;;;5.63;3.97;;;;;;;10.81;46.98;101371.16;5072100;28;20052;-64
2020/12/20 09:10:08;;;;;;;5.82;3.85;;;;;;;10.79;47.13;101369.53;5073326;28;20036;-65
2020/12/20 09:12:37;;;;;;;7.18;4.15;;;;;;;10.79;47.03;101372.28;5071113;28;20043;-65
2020/12/20 09:15:08;;;;;;;5.47;3.65;;;;;;;10.79;47.46;101373.16;5076944;28;20043;-65
2020/12/20 09:17:58;;;;;;;5.65;3.88;;;;;;;10.79;47.46;101372.28;5073917;28;20052;-66
2020/12/20 09:20:46;;;;;;;6.65;3.75;;;;;;;10.77;47.33;101377.88;5077465;28;20397;-65
2020/12/20 09:23:18;;;;;;;6.82;3.90;;;;;;;10.81;47.31;101389.44;5071225;28;20036;-65
2020/12/20 09:25:46;;;;;;;5.60;3.55;;;;;;;10.79;47.21;101384.09;5076079;28;20043;-65
2020/12/20 09:28:19;;;;;;;6.47;3.92;;;;;;;10.82;47.23;101388.47;5069461;28;20471;-65
2020/12/20 09:30:46;;;;;;;;;;;;;;;10.56;47.94;101398.72;5073838;28;20044;-65
2020/12/20 09:33:26;;;;;;;5.20;3.65;;;;;;;10.81;47.67;101390.31;5074418;28;19921;-65
2020/12/20 09:35:57;;;;;;;5.90;3.90;;;;;;;10.83;47.30;101393.84;5080058;28;20368;-65
2020/12/20 09:38:27;;;;;;;6.57;3.83;;;;;;;10.85;47.12;101396.47;5079406;28;20051;-65
2020/12/20 09:41:05;;;;;;;7.13;4.00;;;;;;;10.88;47.29;101397.09;5074119;28;20123;-65
2020/12/20 09:43:33;;;;;;;6.40;4.00;;;;;;;10.88;47.49;101391.59;5074762;28;20120;-65
2020/12/20 09:46:02;;;;;;;6.28;4.40;;;;;;;10.90;47.39;101399.72;5074453;28;20051;-65
2020/12/20 09:48:31;;;;;;;6.93;3.90;;;;;;;10.93;47.44;101395.88;5074533;28;20131;-65
2020/12/20 09:50:59;;;;;;;5.15;3.22;;;;;;;10.94;47.31;101400.34;5039190;28;20041;-65
2020/12/20 09:53:30;;;;;;;6.93;3.65;;;;;;;10.97;47.43;101389.13;5073164;28;20054;-66
2020/12/20 09:55:58;;;;;;;6.20;3.72;;;;;;;10.98;47.30;101397.22;5073361;28;20132;-65
2020/12/20 09:58:27;;;;;;;5.85;3.70;;;;;;;10.99;47.72;101396.25;5072801;28;20041;-65
2020/12/20 10:00:55;;;;;;;6.10;3.70;;;;;;;11.04;47.32;101404.06;5067686;28;20076;-66
2020/12/20 10:03:24;;;;;;;6.25;3.90;;;;;;;11.06;47.37;101405.69;5069206;28;20056;-65
2020/12/20 10:05:55;;;;;;;5.55;3.63;;;;;;;11.08;47.42;101398.25;5074237;28;20028;-65
2020/12/20 10:08:22;;;;;;;6.10;4.38;;;;;;;11.10;47.51;101409.97;5053034;28;20037;-65
2020/12/20 10:10:51;;;;;;;6.38;4.32;;;;;;;11.14;47.57;101411.44;5055825;28;20452;-65
2020/12/20 10:13:23;;;;;;;;;;;;;;;10.89;47.99;101414.38;5050801;28;20147;-65
2020/12/20 10:15:50;;;;;;;5.15;3.20;;;;;;;11.13;47.73;101420.63;5072479;28;19924;-65
2020/12/20 10:18:17;;;;;;;7.28;3.83;;;;;;;11.20;47.63;101410.06;5071899;28;20131;-65
2020/12/20 10:20:45;;;;;;;7.45;4.28;;;;;;;11.23;47.39;101413.44;5068349;28;20048;-65
2020/12/20 10:23:13;;;;;;;6.50;3.67;;;;;;;11.25;47.48;101414.19;5071028;28;20044;-65
2020/12/20 10:25:41;;;;;;;5.50;3.67;;;;;;;11.26;47.44;101406.84;5071599;28;20391;-65
2020/12/20 10:28:10;;;;;;;6.53;4.15;;;;;;;11.31;47.50;101406.47;5071331;28;20120;-65
2020/12/20 10:30:38;;;;;;;5.68;3.80;;;;;;;11.33;47.33;101407.22;5069800;28;20541;-66
2020/12/20 10:33:05;;;;;;;7.55;4.47;;;;;;;11.33;47.15;101409.97;5066168;28;20511;-65
2020/12/20 10:35:33;;;;;;;7.45;4.05;;;;;;;11.36;47.22;101410.56;5081264;28;20040;-65
2020/12/20 10:38:00;;;;;;;6.88;3.92;;;;;;;11.37;46.94;101415.06;5078063;28;20048;-64
2020/12/20 10:40:28;;;;;;;5.97;3.50;;;;;;;11.39;47.38;101415.81;5068199;28;20044;-64
2020/12/20 10:42:56;;;;;;;6.53;3.40;;;;;;;11.41;47.06;101408.34;5065688;28;20049;-64
2020/12/20 10:45:24;;;;;;;5.63;3.63;;;;;;;11.44;47.01;101405.34;5064535;28;20041;-64
2020/12/20 10:47:56;;;;;;;6.18;3.80;;;;;;;11.45;47.30;101409.81;5050808;28;20047;-65
2020/12/20 10:50:23;;;;;;;5.50;3.22;;;;;;;11.46;46.90;101400.63;5069944;28;20044;-65
2020/12/20 10:52:51;;;;;;;5.80;3.42;;;;;;;11.47;46.89;101393.28;5070207;28;20059;-65
2020/12/20 10:55:36;;;;;;;5.18;3.42;;;;;;;11.48;46.84;101405.97;5069141;28;20051;-65
2020/12/20 10:58:05;;;;;;;5.00;3.28;;;;;;;11.51;46.85;101397.50;5065677;28;20056;-65
2020/12/20 11:00:39;;;;;;;4.47;3.10;;;;;;;11.52;47.28;101400.13;5049944;28;20041;-65
2020/12/20 11:03:07;;;;;;;5.15;3.20;;;;;;;11.52;47.16;101400.13;5069025;28;20482;-65
2020/12/20 11:05:54;;;;;;;5.72;3.00;;;;;;;11.52;46.79;101389.19;5062596;28;20132;-64
2020/12/20 11:08:22;;;;;;;4.78;3.00;;;;;;;11.55;46.86;101385.28;5070627;28;20464;-64
2020/12/20 11:10:49;;;;;;;6.03;3.08;;;;;;;11.56;46.82;101392.53;5049335;28;20048;-64
2020/12/20 11:13:16;;;;;;;5.13;3.03;;;;;;;11.57;46.63;101397.88;5071534;28;20082;-64
2020/12/20 11:15:46;;;;;;;4.35;2.80;;;;;;;11.60;46.50;101394.91;5070096;28;20060;-65
2020/12/20 11:18:13;;;;;;;5.05;2.78;;;;;;;11.59;46.41;101384.06;5071984;28;20068;-64
2020/12/20 11:20:44;;;;;;;6.63;3.30;;;;;;;11.60;46.53;101394.03;5067195;28;20123;-65
2020/12/20 11:23:31;;;;;;;5.30;2.55;;;;;;;11.60;46.36;101392.16;5064397;28;20048;-65
2020/12/20 11:25:59;;;;;;;5.68;3.30;;;;;;;11.61;46.33;101388.41;5058990;28;20037;-66
2020/12/20 11:28:26;;;;;;;5.68;2.78;;;;;;;11.62;46.63;101383.78;5071098;28;20082;-66
2020/12/20 11:30:54;;;;;;;5.97;3.33;;;;;;;11.63;46.33;101385.53;5068002;28;20128;-64
2020/12/20 11:33:23;;;;;;;5.15;2.67;;;;;;;11.63;46.78;101386.41;5063241;28;20037;-65
2020/12/20 11:35:51;;;;;;;4.85;2.90;;;;;;;11.64;46.44;101382.66;5074931;28;20123;-64
2020/12/20 11:38:18;;;;;;;5.07;2.90;;;;;;;11.65;46.43;101387.16;5073026;28;20094;-64
2020/12/20 11:40:46;;;;;;;5.93;3.00;;;;;;;11.66;46.54;101386.16;5057006;28;20553;-64
2020/12/20 11:43:25;;;;;;;5.70;3.17;;;;;;;11.66;46.72;101382.56;5080946;28;20065;-64
2020/12/20 11:45:53;;;;;;;5.50;3.00;;;;;;;11.69;46.56;101381.44;5069851;28;20215;-64
2020/12/20 11:48:21;;;;;;;5.32;3.03;;;;;;;11.70;46.23;101383.16;5063143;28;20044;-65